sensor_id;sensor_type;location;lat;lon;timestamp;P1;durP1;ratioP1;P2;durP2;ratioP2
78122;SDS011;67376;44.802;10.332;2024-01-30T00:00:31;9.65;;;5.55;;
78122;SDS011;67376;44.802;10.332;2024-01-30T00:02:56;12.27;;;7.10;;
78122;SDS011;67376;44.802;10.332;2024-01-30T00:05:21;9.15;;;6.55;;
78122;SDS011;67376;44.802;10.332;2024-01-30T00:07:47;10.80;;;6.47;;
78122;SDS011;67376;44.802;10.332;2024-01-30T00:10:12;11.30;;;6.93;;
78122;SDS011;67376;44.802;10.332;2024-01-30T00:12:38;9.77;;;5.88;;
78122;SDS011;67376;44.802;10.332;2024-01-30T00:15:03;12.05;;;6.53;;
78122;SDS011;67376;44.802;10.332;2024-01-30T00:17:30;9.38;;;6.05;;
78122;SDS011;67376;44.802;10.332;2024-01-30T00:19:55;11.18;;;6.78;;
78122;SDS011;67376;44.802;10.332;2024-01-30T00:22:20;9.77;;;6.47;;
78122;SDS011;67376;44.802;10.332;2024-01-30T00:24:46;11.23;;;6.30;;
78122;SDS011;67376;44.802;10.332;2024-01-30T00:27:11;10.90;;;6.68;;
78122;SDS011;67376;44.802;10.332;2024-01-30T00:29:36;10.90;;;7.05;;
78122;SDS011;67376;44.802;10.332;2024-01-30T00:32:02;9.57;;;6.88;;
78122;SDS011;67376;44.802;10.332;2024-01-30T00:34:27;8.65;;;6.03;;
78122;SDS011;67376;44.802;10.332;2024-01-30T00:36:53;11.00;;;6.38;;
78122;SDS011;67376;44.802;10.332;2024-01-30T00:39:18;13.70;;;7.40;;
78122;SDS011;67376;44.802;10.332;2024-01-30T00:41:44;9.18;;;6.45;;
78122;SDS011;67376;44.802;10.332;2024-01-30T00:44:10;10.82;;;6.25;;
78122;SDS011;67376;44.802;10.332;2024-01-30T00:46:35;11.20;;;7.07;;
78122;SDS011;67376;44.802;10.332;2024-01-30T00:49:01;10.77;;;6.70;;
78122;SDS011;67376;44.802;10.332;2024-01-30T00:51:26;10.43;;;6.15;;
78122;SDS011;67376;44.802;10.332;2024-01-30T00:53:52;9.50;;;6.38;;
78122;SDS011;67376;44.802;10.332;2024-01-30T00:56:17;10.48;;;5.95;;
78122;SDS011;67376;44.802;10.332;2024-01-30T00:58:44;10.88;;;6.10;;
78122;SDS011;67376;44.802;10.332;2024-01-30T01:01:09;9.43;;;6.15;;
78122;SDS011;67376;44.802;10.332;2024-01-30T01:03:34;11.52;;;6.75;;
78122;SDS011;67376;44.802;10.332;2024-01-30T01:06:00;8.40;;;6.35;;
78122;SDS011;67376;44.802;10.332;2024-01-30T01:08:25;9.32;;;6.28;;
78122;SDS011;67376;44.802;10.332;2024-01-30T01:10:50;10.60;;;6.22;;
78122;SDS011;67376;44.802;10.332;2024-01-30T01:13:16;11.32;;;6.57;;
78122;SDS011;67376;44.802;10.332;2024-01-30T01:15:41;7.55;;;5.35;;
78122;SDS011;67376;44.802;10.332;2024-01-30T01:18:06;10.07;;;5.95;;
78122;SDS011;67376;44.802;10.332;2024-01-30T01:20:32;9.10;;;5.80;;
78122;SDS011;67376;44.802;10.332;2024-01-30T01:22:57;9.95;;;6.25;;
78122;SDS011;67376;44.802;10.332;2024-01-30T01:25:22;10.75;;;6.18;;
78122;SDS011;67376;44.802;10.332;2024-01-30T01:27:48;9.02;;;6.07;;
78122;SDS011;67376;44.802;10.332;2024-01-30T01:30:16;11.18;;;6.60;;
78122;SDS011;67376;44.802;10.332;2024-01-30T01:32:47;9.05;;;6.07;;
78122;SDS011;67376;44.802;10.332;2024-01-30T01:35:20;9.43;;;5.68;;
78122;SDS011;67376;44.802;10.332;2024-01-30T01:37:47;10.57;;;6.60;;
78122;SDS011;67376;44.802;10.332;2024-01-30T01:40:19;9.10;;;5.88;;
78122;SDS011;67376;44.802;10.332;2024-01-30T01:42:45;8.52;;;6.15;;
78122;SDS011;67376;44.802;10.332;2024-01-30T01:45:11;9.75;;;5.95;;
78122;SDS011;67376;44.802;10.332;2024-01-30T01:47:36;8.00;;;5.75;;
78122;SDS011;67376;44.802;10.332;2024-01-30T01:50:02;9.43;;;5.82;;
78122;SDS011;67376;44.802;10.332;2024-01-30T01:52:28;9.18;;;5.78;;
78122;SDS011;67376;44.802;10.332;2024-01-30T01:54:53;9.05;;;5.88;;
78122;SDS011;67376;44.802;10.332;2024-01-30T01:57:19;8.88;;;6.35;;
78122;SDS011;67376;44.802;10.332;2024-01-30T01:59:45;9.90;;;6.43;;
78122;SDS011;67376;44.802;10.332;2024-01-30T02:02:10;8.52;;;5.45;;
78122;SDS011;67376;44.802;10.332;2024-01-30T02:04:37;9.18;;;6.30;;
78122;SDS011;67376;44.802;10.332;2024-01-30T02:07:03;8.77;;;5.78;;
78122;SDS011;67376;44.802;10.332;2024-01-30T02:09:28;10.57;;;6.40;;
78122;SDS011;67376;44.802;10.332;2024-01-30T02:11:54;8.32;;;6.13;;
78122;SDS011;67376;44.802;10.332;2024-01-30T02:14:20;9.00;;;5.88;;
78122;SDS011;67376;44.802;10.332;2024-01-30T02:16:45;8.13;;;5.93;;
78122;SDS011;67376;44.802;10.332;2024-01-30T02:19:11;10.05;;;6.75;;
78122;SDS011;67376;44.802;10.332;2024-01-30T02:21:36;8.00;;;5.30;;
78122;SDS011;67376;44.802;10.332;2024-01-30T02:24:02;8.27;;;5.93;;
78122;SDS011;67376;44.802;10.332;2024-01-30T02:26:28;10.68;;;5.75;;
78122;SDS011;67376;44.802;10.332;2024-01-30T02:28:53;9.48;;;6.00;;
78122;SDS011;67376;44.802;10.332;2024-01-30T02:31:19;8.55;;;5.30;;
78122;SDS011;67376;44.802;10.332;2024-01-30T02:33:44;7.50;;;5.63;;
78122;SDS011;67376;44.802;10.332;2024-01-30T02:36:09;7.95;;;5.80;;
78122;SDS011;67376;44.802;10.332;2024-01-30T02:38:35;10.70;;;6.00;;
78122;SDS011;67376;44.802;10.332;2024-01-30T02:41:00;8.60;;;4.85;;
78122;SDS011;67376;44.802;10.332;2024-01-30T02:43:26;8.15;;;5.63;;
78122;SDS011;67376;44.802;10.332;2024-01-30T02:45:51;7.95;;;5.63;;
78122;SDS011;67376;44.802;10.332;2024-01-30T02:48:16;8.80;;;5.68;;
78122;SDS011;67376;44.802;10.332;2024-01-30T02:50:42;7.75;;;5.35;;
78122;SDS011;67376;44.802;10.332;2024-01-30T02:53:07;8.43;;;5.50;;
78122;SDS011;67376;44.802;10.332;2024-01-30T02:55:33;6.40;;;5.00;;
78122;SDS011;67376;44.802;10.332;2024-01-30T02:57:58;8.73;;;5.82;;
78122;SDS011;67376;44.802;10.332;2024-01-30T03:00:24;8.07;;;4.95;;
78122;SDS011;67376;44.802;10.332;2024-01-30T03:02:49;7.90;;;5.28;;
78122;SDS011;67376;44.802;10.332;2024-01-30T03:05:14;8.02;;;5.57;;
78122;SDS011;67376;44.802;10.332;2024-01-30T03:07:40;7.82;;;5.35;;
78122;SDS011;67376;44.802;10.332;2024-01-30T03:10:05;7.70;;;5.18;;
78122;SDS011;67376;44.802;10.332;2024-01-30T03:12:31;8.82;;;5.85;;
78122;SDS011;67376;44.802;10.332;2024-01-30T03:14:57;7.35;;;5.20;;
78122;SDS011;67376;44.802;10.332;2024-01-30T03:17:22;6.95;;;5.13;;
78122;SDS011;67376;44.802;10.332;2024-01-30T03:19:49;8.30;;;5.57;;
78122;SDS011;67376;44.802;10.332;2024-01-30T03:22:14;7.60;;;5.55;;
78122;SDS011;67376;44.802;10.332;2024-01-30T03:24:39;6.25;;;4.82;;
78122;SDS011;67376;44.802;10.332;2024-01-30T03:27:05;7.75;;;5.50;;
78122;SDS011;67376;44.802;10.332;2024-01-30T03:29:30;6.85;;;4.72;;
78122;SDS011;67376;44.802;10.332;2024-01-30T03:31:56;7.70;;;5.18;;
78122;SDS011;67376;44.802;10.332;2024-01-30T03:34:21;8.05;;;5.80;;
78122;SDS011;67376;44.802;10.332;2024-01-30T03:36:46;7.15;;;5.10;;
78122;SDS011;67376;44.802;10.332;2024-01-30T03:39:12;8.05;;;5.32;;
78122;SDS011;67376;44.802;10.332;2024-01-30T03:41:37;7.15;;;4.93;;
78122;SDS011;67376;44.802;10.332;2024-01-30T03:44:02;6.97;;;5.38;;
78122;SDS011;67376;44.802;10.332;2024-01-30T03:46:28;7.50;;;5.00;;
78122;SDS011;67376;44.802;10.332;2024-01-30T03:48:53;8.38;;;5.00;;
78122;SDS011;67376;44.802;10.332;2024-01-30T03:51:19;6.32;;;4.82;;
78122;SDS011;67376;44.802;10.332;2024-01-30T03:53:44;6.88;;;4.93;;
78122;SDS011;67376;44.802;10.332;2024-01-30T03:56:11;6.32;;;5.03;;
78122;SDS011;67376;44.802;10.332;2024-01-30T03:58:38;6.95;;;5.05;;
78122;SDS011;67376;44.802;10.332;2024-01-30T04:01:03;6.20;;;4.40;;
78122;SDS011;67376;44.802;10.332;2024-01-30T04:03:29;8.07;;;5.38;;
78122;SDS011;67376;44.802;10.332;2024-01-30T04:05:54;8.63;;;5.13;;
78122;SDS011;67376;44.802;10.332;2024-01-30T04:08:20;6.47;;;4.55;;
78122;SDS011;67376;44.802;10.332;2024-01-30T04:10:46;9.45;;;5.57;;
78122;SDS011;67376;44.802;10.332;2024-01-30T04:13:12;8.75;;;5.20;;
78122;SDS011;67376;44.802;10.332;2024-01-30T04:15:37;6.15;;;4.78;;
78122;SDS011;67376;44.802;10.332;2024-01-30T04:18:03;6.47;;;4.72;;
78122;SDS011;67376;44.802;10.332;2024-01-30T04:20:29;6.88;;;4.97;;
78122;SDS011;67376;44.802;10.332;2024-01-30T04:22:54;6.53;;;4.60;;
78122;SDS011;67376;44.802;10.332;2024-01-30T04:25:20;5.82;;;4.82;;
78122;SDS011;67376;44.802;10.332;2024-01-30T04:27:45;6.78;;;4.55;;
78122;SDS011;67376;44.802;10.332;2024-01-30T04:30:11;7.15;;;4.70;;
78122;SDS011;67376;44.802;10.332;2024-01-30T04:32:36;6.63;;;4.65;;
78122;SDS011;67376;44.802;10.332;2024-01-30T04:35:02;7.63;;;5.15;;
78122;SDS011;67376;44.802;10.332;2024-01-30T04:37:28;8.88;;;5.20;;
78122;SDS011;67376;44.802;10.332;2024-01-30T04:39:53;7.90;;;5.10;;
78122;SDS011;67376;44.802;10.332;2024-01-30T04:42:19;6.88;;;4.97;;
78122;SDS011;67376;44.802;10.332;2024-01-30T04:44:44;7.85;;;4.90;;
78122;SDS011;67376;44.802;10.332;2024-01-30T04:47:10;6.57;;;4.75;;
78122;SDS011;67376;44.802;10.332;2024-01-30T04:49:37;8.95;;;5.80;;
78122;SDS011;67376;44.802;10.332;2024-01-30T04:52:04;6.68;;;4.72;;
78122;SDS011;67376;44.802;10.332;2024-01-30T04:54:29;7.00;;;4.55;;
78122;SDS011;67376;44.802;10.332;2024-01-30T04:56:55;5.78;;;4.28;;
78122;SDS011;67376;44.802;10.332;2024-01-30T04:59:20;5.35;;;3.75;;
78122;SDS011;67376;44.802;10.332;2024-01-30T05:01:45;8.52;;;5.00;;
78122;SDS011;67376;44.802;10.332;2024-01-30T05:04:11;6.65;;;4.68;;
78122;SDS011;67376;44.802;10.332;2024-01-30T05:06:36;7.75;;;4.88;;
78122;SDS011;67376;44.802;10.332;2024-01-30T05:09:02;6.38;;;4.50;;
78122;SDS011;67376;44.802;10.332;2024-01-30T05:11:29;6.57;;;4.68;;
78122;SDS011;67376;44.802;10.332;2024-01-30T05:13:54;6.25;;;4.60;;
78122;SDS011;67376;44.802;10.332;2024-01-30T05:16:20;7.45;;;4.68;;
78122;SDS011;67376;44.802;10.332;2024-01-30T05:18:45;6.53;;;4.70;;
78122;SDS011;67376;44.802;10.332;2024-01-30T05:21:10;6.15;;;4.18;;
78122;SDS011;67376;44.802;10.332;2024-01-30T05:23:36;6.38;;;4.47;;
78122;SDS011;67376;44.802;10.332;2024-01-30T05:26:01;6.07;;;4.32;;
78122;SDS011;67376;44.802;10.332;2024-01-30T05:28:27;6.88;;;4.93;;
78122;SDS011;67376;44.802;10.332;2024-01-30T05:30:54;6.00;;;4.20;;
78122;SDS011;67376;44.802;10.332;2024-01-30T05:33:20;5.60;;;4.20;;
78122;SDS011;67376;44.802;10.332;2024-01-30T05:35:46;7.38;;;4.30;;
78122;SDS011;67376;44.802;10.332;2024-01-30T05:38:11;5.75;;;4.28;;
78122;SDS011;67376;44.802;10.332;2024-01-30T05:40:37;5.75;;;4.40;;
78122;SDS011;67376;44.802;10.332;2024-01-30T05:43:03;5.32;;;4.35;;
78122;SDS011;67376;44.802;10.332;2024-01-30T05:45:28;6.97;;;4.85;;
78122;SDS011;67376;44.802;10.332;2024-01-30T05:47:53;7.18;;;4.65;;
78122;SDS011;67376;44.802;10.332;2024-01-30T05:50:19;7.10;;;4.47;;
78122;SDS011;67376;44.802;10.332;2024-01-30T05:52:45;7.28;;;4.70;;
78122;SDS011;67376;44.802;10.332;2024-01-30T05:55:11;7.53;;;4.65;;
78122;SDS011;67376;44.802;10.332;2024-01-30T05:57:37;6.30;;;4.28;;
78122;SDS011;67376;44.802;10.332;2024-01-30T06:00:03;7.05;;;4.25;;
78122;SDS011;67376;44.802;10.332;2024-01-30T06:02:30;12.45;;;8.57;;
78122;SDS011;67376;44.802;10.332;2024-01-30T06:04:55;12.05;;;9.70;;
78122;SDS011;67376;44.802;10.332;2024-01-30T06:07:21;10.98;;;8.88;;
78122;SDS011;67376;44.802;10.332;2024-01-30T06:09:47;12.98;;;9.25;;
78122;SDS011;67376;44.802;10.332;2024-01-30T06:12:12;10.82;;;7.90;;
78122;SDS011;67376;44.802;10.332;2024-01-30T06:14:37;8.75;;;6.63;;
78122;SDS011;67376;44.802;10.332;2024-01-30T06:17:03;10.40;;;4.85;;
78122;SDS011;67376;44.802;10.332;2024-01-30T06:19:29;7.00;;;5.30;;
78122;SDS011;67376;44.802;10.332;2024-01-30T06:21:55;6.75;;;5.20;;
78122;SDS011;67376;44.802;10.332;2024-01-30T06:24:20;7.68;;;4.70;;
78122;SDS011;67376;44.802;10.332;2024-01-30T06:26:46;7.85;;;5.07;;
78122;SDS011;67376;44.802;10.332;2024-01-30T06:29:11;5.38;;;4.45;;
78122;SDS011;67376;44.802;10.332;2024-01-30T06:31:40;7.15;;;4.25;;
78122;SDS011;67376;44.802;10.332;2024-01-30T06:34:06;6.55;;;4.38;;
78122;SDS011;67376;44.802;10.332;2024-01-30T06:36:32;7.20;;;4.78;;
78122;SDS011;67376;44.802;10.332;2024-01-30T06:38:57;6.78;;;5.03;;
78122;SDS011;67376;44.802;10.332;2024-01-30T06:41:23;7.63;;;4.57;;
78122;SDS011;67376;44.802;10.332;2024-01-30T06:43:48;7.45;;;4.78;;
78122;SDS011;67376;44.802;10.332;2024-01-30T06:46:14;8.65;;;6.38;;
78122;SDS011;67376;44.802;10.332;2024-01-30T06:48:39;8.52;;;6.70;;
78122;SDS011;67376;44.802;10.332;2024-01-30T06:51:05;10.70;;;7.28;;
78122;SDS011;67376;44.802;10.332;2024-01-30T06:53:31;10.45;;;6.85;;
78122;SDS011;67376;44.802;10.332;2024-01-30T06:55:56;12.65;;;6.55;;
78122;SDS011;67376;44.802;10.332;2024-01-30T06:58:22;8.63;;;6.53;;
78122;SDS011;67376;44.802;10.332;2024-01-30T07:00:47;8.52;;;6.13;;
78122;SDS011;67376;44.802;10.332;2024-01-30T07:03:13;7.28;;;5.90;;
78122;SDS011;67376;44.802;10.332;2024-01-30T07:05:38;9.15;;;6.22;;
78122;SDS011;67376;44.802;10.332;2024-01-30T07:08:04;10.13;;;7.03;;
78122;SDS011;67376;44.802;10.332;2024-01-30T07:10:29;10.77;;;7.18;;
78122;SDS011;67376;44.802;10.332;2024-01-30T07:12:56;11.55;;;7.78;;
78122;SDS011;67376;44.802;10.332;2024-01-30T07:15:21;7.15;;;6.32;;
78122;SDS011;67376;44.802;10.332;2024-01-30T07:17:47;11.27;;;6.20;;
78122;SDS011;67376;44.802;10.332;2024-01-30T07:20:12;8.65;;;5.97;;
78122;SDS011;67376;44.802;10.332;2024-01-30T07:22:38;7.60;;;5.22;;
78122;SDS011;67376;44.802;10.332;2024-01-30T07:25:03;7.88;;;5.25;;
78122;SDS011;67376;44.802;10.332;2024-01-30T07:27:29;6.80;;;4.93;;
78122;SDS011;67376;44.802;10.332;2024-01-30T07:29:54;9.93;;;5.75;;
78122;SDS011;67376;44.802;10.332;2024-01-30T07:32:20;8.38;;;4.90;;
78122;SDS011;67376;44.802;10.332;2024-01-30T07:34:45;6.95;;;5.32;;
78122;SDS011;67376;44.802;10.332;2024-01-30T07:37:10;8.35;;;5.28;;
78122;SDS011;67376;44.802;10.332;2024-01-30T07:39:40;7.68;;;5.03;;
78122;SDS011;67376;44.802;10.332;2024-01-30T07:42:05;8.00;;;5.30;;
78122;SDS011;67376;44.802;10.332;2024-01-30T07:44:31;5.80;;;4.95;;
78122;SDS011;67376;44.802;10.332;2024-01-30T07:46:56;6.10;;;4.82;;
78122;SDS011;67376;44.802;10.332;2024-01-30T07:49:22;5.55;;;4.82;;
78122;SDS011;67376;44.802;10.332;2024-01-30T07:51:47;5.78;;;4.47;;
78122;SDS011;67376;44.802;10.332;2024-01-30T07:54:15;7.57;;;4.90;;
78122;SDS011;67376;44.802;10.332;2024-01-30T07:56:41;7.93;;;4.97;;
78122;SDS011;67376;44.802;10.332;2024-01-30T07:59:09;7.47;;;4.43;;
78122;SDS011;67376;44.802;10.332;2024-01-30T08:04:01;6.07;;;4.40;;
78122;SDS011;67376;44.802;10.332;2024-01-30T08:06:26;7.85;;;4.88;;
78122;SDS011;67376;44.802;10.332;2024-01-30T08:08:51;5.90;;;4.13;;
78122;SDS011;67376;44.802;10.332;2024-01-30T08:11:19;7.65;;;4.30;;
78122;SDS011;67376;44.802;10.332;2024-01-30T08:13:45;6.35;;;4.28;;
78122;SDS011;67376;44.802;10.332;2024-01-30T08:16:11;5.97;;;4.72;;
78122;SDS011;67376;44.802;10.332;2024-01-30T08:18:36;7.22;;;4.60;;
78122;SDS011;67376;44.802;10.332;2024-01-30T08:21:01;5.78;;;3.92;;
78122;SDS011;67376;44.802;10.332;2024-01-30T08:23:27;5.75;;;4.47;;
78122;SDS011;67376;44.802;10.332;2024-01-30T08:25:52;6.32;;;4.45;;
78122;SDS011;67376;44.802;10.332;2024-01-30T08:28:17;6.55;;;4.55;;
78122;SDS011;67376;44.802;10.332;2024-01-30T08:30:43;5.38;;;4.28;;
78122;SDS011;67376;44.802;10.332;2024-01-30T08:33:08;5.45;;;4.10;;
78122;SDS011;67376;44.802;10.332;2024-01-30T08:35:33;6.90;;;4.15;;
78122;SDS011;67376;44.802;10.332;2024-01-30T08:37:59;6.15;;;4.15;;
78122;SDS011;67376;44.802;10.332;2024-01-30T08:40:25;5.63;;;3.63;;
78122;SDS011;67376;44.802;10.332;2024-01-30T08:42:50;4.90;;;3.75;;
78122;SDS011;67376;44.802;10.332;2024-01-30T08:45:16;5.90;;;4.05;;
78122;SDS011;67376;44.802;10.332;2024-01-30T08:47:41;6.32;;;4.38;;
78122;SDS011;67376;44.802;10.332;2024-01-30T08:50:07;6.63;;;3.70;;
78122;SDS011;67376;44.802;10.332;2024-01-30T08:52:33;4.88;;;3.78;;
78122;SDS011;67376;44.802;10.332;2024-01-30T08:54:59;4.57;;;3.53;;
78122;SDS011;67376;44.802;10.332;2024-01-30T08:57:24;5.45;;;3.55;;
78122;SDS011;67376;44.802;10.332;2024-01-30T08:59:53;7.05;;;4.25;;
78122;SDS011;67376;44.802;10.332;2024-01-30T09:02:19;8.70;;;4.10;;
78122;SDS011;67376;44.802;10.332;2024-01-30T09:04:44;4.63;;;3.65;;
78122;SDS011;67376;44.802;10.332;2024-01-30T09:07:09;4.10;;;3.53;;
78122;SDS011;67376;44.802;10.332;2024-01-30T09:09:35;5.03;;;3.90;;
78122;SDS011;67376;44.802;10.332;2024-01-30T09:12:02;5.38;;;3.78;;
78122;SDS011;67376;44.802;10.332;2024-01-30T09:14:31;4.43;;;3.75;;
78122;SDS011;67376;44.802;10.332;2024-01-30T09:16:57;4.30;;;3.53;;
78122;SDS011;67376;44.802;10.332;2024-01-30T09:19:22;5.07;;;4.10;;
78122;SDS011;67376;44.802;10.332;2024-01-30T09:21:48;4.75;;;3.85;;
78122;SDS011;67376;44.802;10.332;2024-01-30T09:24:13;6.07;;;3.90;;
78122;SDS011;67376;44.802;10.332;2024-01-30T09:26:38;4.30;;;3.65;;
78122;SDS011;67376;44.802;10.332;2024-01-30T09:29:04;4.97;;;3.53;;
78122;SDS011;67376;44.802;10.332;2024-01-30T09:31:29;5.55;;;3.83;;
78122;SDS011;67376;44.802;10.332;2024-01-30T09:33:55;7.10;;;3.83;;
78122;SDS011;67376;44.802;10.332;2024-01-30T09:36:20;5.55;;;3.95;;
78122;SDS011;67376;44.802;10.332;2024-01-30T09:38:46;7.07;;;4.05;;
78122;SDS011;67376;44.802;10.332;2024-01-30T09:41:11;6.72;;;3.70;;
78122;SDS011;67376;44.802;10.332;2024-01-30T09:43:37;3.90;;;3.25;;
78122;SDS011;67376;44.802;10.332;2024-01-30T09:46:04;5.55;;;3.40;;
78122;SDS011;67376;44.802;10.332;2024-01-30T09:48:30;7.43;;;3.33;;
78122;SDS011;67376;44.802;10.332;2024-01-30T09:50:58;5.68;;;3.15;;
78122;SDS011;67376;44.802;10.332;2024-01-30T09:53:24;4.28;;;3.45;;
78122;SDS011;67376;44.802;10.332;2024-01-30T09:55:50;4.60;;;3.63;;
78122;SDS011;67376;44.802;10.332;2024-01-30T09:58:16;4.82;;;3.75;;
78122;SDS011;67376;44.802;10.332;2024-01-30T10:00:41;6.20;;;4.30;;
78122;SDS011;67376;44.802;10.332;2024-01-30T10:03:07;6.65;;;3.65;;
78122;SDS011;67376;44.802;10.332;2024-01-30T10:05:34;5.78;;;3.70;;
78122;SDS011;67376;44.802;10.332;2024-01-30T10:08:05;4.68;;;3.55;;
78122;SDS011;67376;44.802;10.332;2024-01-30T10:10:33;5.40;;;4.03;;
78122;SDS011;67376;44.802;10.332;2024-01-30T10:12:58;4.22;;;3.42;;
78122;SDS011;67376;44.802;10.332;2024-01-30T10:15:25;4.63;;;3.95;;
78122;SDS011;67376;44.802;10.332;2024-01-30T10:17:50;5.28;;;4.30;;
78122;SDS011;67376;44.802;10.332;2024-01-30T10:20:16;5.65;;;4.60;;
78122;SDS011;67376;44.802;10.332;2024-01-30T10:22:42;5.55;;;4.68;;
78122;SDS011;67376;44.802;10.332;2024-01-30T10:25:09;6.65;;;4.50;;
78122;SDS011;67376;44.802;10.332;2024-01-30T10:27:34;6.57;;;4.80;;
78122;SDS011;67376;44.802;10.332;2024-01-30T10:30:00;7.95;;;4.80;;
78122;SDS011;67376;44.802;10.332;2024-01-30T10:32:25;6.70;;;4.95;;
78122;SDS011;67376;44.802;10.332;2024-01-30T10:34:51;5.47;;;4.22;;
78122;SDS011;67376;44.802;10.332;2024-01-30T10:37:16;5.97;;;4.60;;
78122;SDS011;67376;44.802;10.332;2024-01-30T10:39:44;6.03;;;4.65;;
78122;SDS011;67376;44.802;10.332;2024-01-30T10:42:14;7.72;;;4.85;;
78122;SDS011;67376;44.802;10.332;2024-01-30T10:47:27;6.15;;;3.45;;
78122;SDS011;67376;44.802;10.332;2024-01-30T10:49:54;5.82;;;4.32;;
78122;SDS011;67376;44.802;10.332;2024-01-30T10:52:20;7.43;;;4.45;;
78122;SDS011;67376;44.802;10.332;2024-01-30T10:54:45;6.20;;;3.65;;
78122;SDS011;67376;44.802;10.332;2024-01-30T10:57:11;5.43;;;4.13;;
78122;SDS011;67376;44.802;10.332;2024-01-30T10:59:39;5.00;;;3.97;;
78122;SDS011;67376;44.802;10.332;2024-01-30T11:02:06;5.93;;;4.20;;
78122;SDS011;67376;44.802;10.332;2024-01-30T11:04:38;4.63;;;3.67;;
78122;SDS011;67376;44.802;10.332;2024-01-30T11:07:18;5.35;;;3.95;;
78122;SDS011;67376;44.802;10.332;2024-01-30T11:09:49;4.40;;;3.30;;
78122;SDS011;67376;44.802;10.332;2024-01-30T11:12:29;4.50;;;3.72;;
78122;SDS011;67376;44.802;10.332;2024-01-30T11:15:16;5.03;;;3.65;;
78122;SDS011;67376;44.802;10.332;2024-01-30T11:18:00;6.82;;;4.30;;
78122;SDS011;67376;44.802;10.332;2024-01-30T11:20:27;5.47;;;3.90;;
78122;SDS011;67376;44.802;10.332;2024-01-30T11:22:57;5.25;;;3.55;;
78122;SDS011;67376;44.802;10.332;2024-01-30T11:25:25;5.00;;;3.78;;
78122;SDS011;67376;44.802;10.332;2024-01-30T11:27:54;5.78;;;3.72;;
78122;SDS011;67376;44.802;10.332;2024-01-30T11:30:21;9.05;;;3.72;;
78122;SDS011;67376;44.802;10.332;2024-01-30T11:35:33;8.70;;;4.60;;
78122;SDS011;67376;44.802;10.332;2024-01-30T11:38:04;5.82;;;3.90;;
78122;SDS011;67376;44.802;10.332;2024-01-30T11:40:31;4.53;;;3.50;;
78122;SDS011;67376;44.802;10.332;2024-01-30T11:42:58;5.90;;;4.10;;
78122;SDS011;67376;44.802;10.332;2024-01-30T11:45:24;5.93;;;4.15;;
78122;SDS011;67376;44.802;10.332;2024-01-30T11:47:51;5.28;;;3.70;;
78122;SDS011;67376;44.802;10.332;2024-01-30T11:50:16;7.00;;;4.57;;
78122;SDS011;67376;44.802;10.332;2024-01-30T11:52:42;6.53;;;4.07;;
78122;SDS011;67376;44.802;10.332;2024-01-30T11:55:08;5.68;;;4.30;;
78122;SDS011;67376;44.802;10.332;2024-01-30T11:57:34;6.47;;;4.70;;
78122;SDS011;67376;44.802;10.332;2024-01-30T12:00:03;6.65;;;4.35;;
78122;SDS011;67376;44.802;10.332;2024-01-30T12:02:35;7.07;;;4.22;;
78122;SDS011;67376;44.802;10.332;2024-01-30T12:05:05;7.05;;;4.15;;
78122;SDS011;67376;44.802;10.332;2024-01-30T12:07:31;5.13;;;3.92;;
78122;SDS011;67376;44.802;10.332;2024-01-30T12:09:57;6.28;;;4.50;;
78122;SDS011;67376;44.802;10.332;2024-01-30T12:12:23;5.35;;;3.92;;
78122;SDS011;67376;44.802;10.332;2024-01-30T12:14:50;6.57;;;3.95;;
78122;SDS011;67376;44.802;10.332;2024-01-30T12:17:28;7.43;;;4.38;;
78122;SDS011;67376;44.802;10.332;2024-01-30T12:20:08;6.55;;;3.97;;
78122;SDS011;67376;44.802;10.332;2024-01-30T12:22:37;7.78;;;3.97;;
78122;SDS011;67376;44.802;10.332;2024-01-30T12:27:39;6.70;;;4.03;;
78122;SDS011;67376;44.802;10.332;2024-01-30T12:30:11;5.65;;;4.00;;
78122;SDS011;67376;44.802;10.332;2024-01-30T12:32:40;6.07;;;4.15;;
78122;SDS011;67376;44.802;10.332;2024-01-30T12:35:13;6.25;;;3.78;;
78122;SDS011;67376;44.802;10.332;2024-01-30T12:37:40;5.22;;;3.78;;
78122;SDS011;67376;44.802;10.332;2024-01-30T12:40:07;5.05;;;3.65;;
78122;SDS011;67376;44.802;10.332;2024-01-30T12:42:33;9.23;;;4.40;;
78122;SDS011;67376;44.802;10.332;2024-01-30T12:44:58;5.43;;;3.80;;
78122;SDS011;67376;44.802;10.332;2024-01-30T12:47:24;5.32;;;3.65;;
78122;SDS011;67376;44.802;10.332;2024-01-30T12:49:49;5.50;;;3.83;;
78122;SDS011;67376;44.802;10.332;2024-01-30T12:52:18;5.28;;;3.58;;
78122;SDS011;67376;44.802;10.332;2024-01-30T12:54:45;8.88;;;4.20;;
78122;SDS011;67376;44.802;10.332;2024-01-30T12:57:11;5.35;;;4.22;;
78122;SDS011;67376;44.802;10.332;2024-01-30T12:59:36;4.32;;;3.35;;
78122;SDS011;67376;44.802;10.332;2024-01-30T13:02:02;5.25;;;4.03;;
78122;SDS011;67376;44.802;10.332;2024-01-30T13:04:28;6.57;;;3.95;;
78122;SDS011;67376;44.802;10.332;2024-01-30T13:06:54;6.50;;;3.92;;
78122;SDS011;67376;44.802;10.332;2024-01-30T13:09:19;6.80;;;4.32;;
78122;SDS011;67376;44.802;10.332;2024-01-30T13:11:45;5.50;;;4.07;;
78122;SDS011;67376;44.802;10.332;2024-01-30T13:14:10;6.55;;;4.30;;
78122;SDS011;67376;44.802;10.332;2024-01-30T13:16:36;6.10;;;3.88;;
78122;SDS011;67376;44.802;10.332;2024-01-30T13:19:02;9.07;;;4.22;;
78122;SDS011;67376;44.802;10.332;2024-01-30T13:21:27;5.28;;;3.90;;
78122;SDS011;67376;44.802;10.332;2024-01-30T13:23:53;7.47;;;4.03;;
78122;SDS011;67376;44.802;10.332;2024-01-30T13:26:19;5.88;;;4.07;;
78122;SDS011;67376;44.802;10.332;2024-01-30T13:28:45;6.75;;;4.47;;
78122;SDS011;67376;44.802;10.332;2024-01-30T13:31:11;5.30;;;3.38;;
78122;SDS011;67376;44.802;10.332;2024-01-30T13:33:37;6.22;;;3.97;;
78122;SDS011;67376;44.802;10.332;2024-01-30T13:36:02;5.55;;;4.05;;
78122;SDS011;67376;44.802;10.332;2024-01-30T13:38:28;5.05;;;3.47;;
78122;SDS011;67376;44.802;10.332;2024-01-30T13:40:53;5.53;;;3.70;;
78122;SDS011;67376;44.802;10.332;2024-01-30T13:43:19;4.68;;;3.58;;
78122;SDS011;67376;44.802;10.332;2024-01-30T13:45:44;6.18;;;4.15;;
78122;SDS011;67376;44.802;10.332;2024-01-30T13:48:10;7.95;;;4.22;;
78122;SDS011;67376;44.802;10.332;2024-01-30T13:50:36;6.13;;;3.50;;
78122;SDS011;67376;44.802;10.332;2024-01-30T13:53:02;5.88;;;4.32;;
78122;SDS011;67376;44.802;10.332;2024-01-30T13:55:29;5.35;;;4.00;;
78122;SDS011;67376;44.802;10.332;2024-01-30T13:57:54;7.18;;;3.78;;
78122;SDS011;67376;44.802;10.332;2024-01-30T14:00:20;6.70;;;3.83;;
78122;SDS011;67376;44.802;10.332;2024-01-30T14:02:47;4.63;;;3.90;;
78122;SDS011;67376;44.802;10.332;2024-01-30T14:05:12;4.68;;;3.97;;
78122;SDS011;67376;44.802;10.332;2024-01-30T14:07:39;6.05;;;4.15;;
78122;SDS011;67376;44.802;10.332;2024-01-30T14:10:05;7.70;;;4.55;;
78122;SDS011;67376;44.802;10.332;2024-01-30T14:12:31;6.95;;;4.18;;
78122;SDS011;67376;44.802;10.332;2024-01-30T14:14:56;6.18;;;4.60;;
78122;SDS011;67376;44.802;10.332;2024-01-30T14:17:21;6.00;;;4.40;;
78122;SDS011;67376;44.802;10.332;2024-01-30T14:19:47;8.80;;;4.55;;
78122;SDS011;67376;44.802;10.332;2024-01-30T14:22:12;6.75;;;4.30;;
78122;SDS011;67376;44.802;10.332;2024-01-30T14:24:38;8.13;;;5.38;;
78122;SDS011;67376;44.802;10.332;2024-01-30T14:27:03;8.57;;;5.13;;
78122;SDS011;67376;44.802;10.332;2024-01-30T14:29:29;7.10;;;4.78;;
78122;SDS011;67376;44.802;10.332;2024-01-30T14:31:54;7.65;;;4.80;;
78122;SDS011;67376;44.802;10.332;2024-01-30T14:34:20;6.30;;;4.47;;
78122;SDS011;67376;44.802;10.332;2024-01-30T14:36:45;7.25;;;5.45;;